Time;durP1;ratioP1;P1;durP2;ratioP2;P2;SDS_P1;SDS_P2;PMS_P1;PMS_P2;Temp;Humidity;BMP_temperature;BMP_pressure;BME280_temperature;BME280_humidity;BME280_pressure;Samples;Min_cycle;Max_cycle;Signal;HPM_P1;HPM_P2
2022/06/06 00:00:11;;;;;;;59.40;3.57;;;;;;;;;;5092599;28;20453;-73
2022/06/06 00:02:38;;;;;;;59.37;3.83;;;;;;;;;;5092650;28;20840;-73
2022/06/06 00:05:07;;;;;;;59.90;3.97;;;;;;;;;;5091905;28;20970;-72
2022/06/06 00:07:35;;;;;;;59.40;3.50;;;;;;;;;;5091691;28;20486;-72
2022/06/06 00:10:02;;;;;;;59.57;3.60;;;;;;;;;;5091976;28;20450;-72
2022/06/06 00:12:29;;;;;;;59.83;4.13;;;;;;;;;;5092158;28;20509;-72
2022/06/06 00:14:56;;;;;;;59.90;4.10;;;;;;;;;;5092441;28;20475;-73
2022/06/06 00:17:23;;;;;;;59.93;4.07;;;;;;;;;;5091541;28;20449;-72
2022/06/06 00:19:50;;;;;;;60.20;4.10;;;;;;;;;;5092350;28;20448;-72
2022/06/06 00:22:19;;;;;;;59.60;4.00;;;;;;;;;;5092147;28;20855;-72
2022/06/06 00:24:46;;;;;;;59.97;3.83;;;;;;;;;;5092114;28;20454;-72
2022/06/06 00:27:13;;;;;;;59.67;3.40;;;;;;;;;;5091619;28;20522;-72
2022/06/06 00:29:41;;;;;;;60.20;4.30;;;;;;;;;;5092299;28;20945;-72
2022/06/06 00:34:53;;;;;;;59.20;3.30;;;;;;;;;;5092035;28;20522;-73
2022/06/06 00:37:23;;;;;;;59.90;4.00;;;;;;;;;;5091596;28;20449;-72
2022/06/06 00:39:51;;;;;;;60.37;3.30;;;;;;;;;;5091932;28;20494;-72
2022/06/06 00:42:20;;;;;;;60.30;4.03;;;;;;;;;;5091768;28;20512;-73
2022/06/06 00:44:48;;;;;;;59.97;3.67;;;;;;;;;;5091887;28;20448;-72
2022/06/06 00:47:17;;;;;;;59.40;3.87;;;;;;;;;;5091087;28;20491;-73
2022/06/06 00:49:46;;;;;;;59.60;3.97;;;;;;;;;;5091837;28;20457;-73
2022/06/06 00:52:16;;;;;;;59.10;3.60;;;;;;;;;;5091945;28;20572;-72
2022/06/06 00:54:46;;;;;;;59.23;3.50;;;;;;;;;;5091783;28;20448;-73
2022/06/06 00:57:15;;;;;;;59.67;4.07;;;;;;;;;;5091199;28;20502;-73
2022/06/06 00:59:44;;;;;;;61.03;3.63;;;;;;;;;;5091966;28;20464;-72
2022/06/06 01:02:12;;;;;;;59.80;3.90;;;;;;;;;;5091579;28;20565;-72
2022/06/06 01:04:40;;;;;;;59.80;3.73;;;;;;;;;;5091706;28;20448;-72
2022/06/06 01:07:08;;;;;;;59.70;3.87;;;;;;;;;;5091489;28;20476;-74
2022/06/06 01:09:35;;;;;;;59.87;4.13;;;;;;;;;;5091597;28;20455;-72
2022/06/06 01:12:05;;;;;;;60.00;3.97;;;;;;;;;;5091666;28;20474;-72
2022/06/06 01:14:34;;;;;;;63.50;4.07;;;;;;;;;;5091564;28;20453;-72
2022/06/06 01:17:02;;;;;;;59.63;3.47;;;;;;;;;;5094590;28;20471;-72
2022/06/06 01:19:42;;;;;;;60.27;4.17;;;;;;;;;;5095206;28;20967;-72
2022/06/06 01:22:20;;;;;;;60.97;3.80;;;;;;;;;;5095688;28;20843;-71
2022/06/06 01:25:04;;;;;;;59.90;4.00;;;;;;;;;;5095549;28;20455;-72
2022/06/06 01:27:41;;;;;;;59.87;3.93;;;;;;;;;;5094770;28;20481;-73
2022/06/06 01:30:12;;;;;;;60.27;4.37;;;;;;;;;;5095565;28;20451;-72
2022/06/06 01:32:42;;;;;;;60.30;4.30;;;;;;;;;;5095372;28;20475;-71
2022/06/06 01:35:10;;;;;;;63.93;4.00;;;;;;;;;;5095677;28;20444;-72
2022/06/06 01:37:38;;;;;;;60.03;4.00;;;;;;;;;;5094403;28;20445;-72
2022/06/06 01:40:07;;;;;;;64.43;4.63;;;;;;;;;;5095463;28;20499;-72
2022/06/06 01:42:36;;;;;;;59.97;4.03;;;;;;;;;;5095278;28;20558;-70
2022/06/06 01:45:05;;;;;;;59.97;3.63;;;;;;;;;;5091986;28;20444;-71
2022/06/06 01:47:36;;;;;;;59.70;3.93;;;;;;;;;;5094310;28;20490;-73
2022/06/06 01:50:05;;;;;;;60.07;4.00;;;;;;;;;;5095266;28;20451;-72
2022/06/06 01:52:32;;;;;;;61.10;4.33;;;;;;;;;;5094948;28;20539;-71
2022/06/06 01:54:59;;;;;;;59.67;3.80;;;;;;;;;;5095099;28;20867;-71
2022/06/06 01:57:27;;;;;;;60.07;4.50;;;;;;;;;;5094169;28;20454;-71
2022/06/06 01:59:54;;;;;;;60.00;3.97;;;;;;;;;;5094805;28;20447;-71
2022/06/06 02:02:21;;;;;;;61.17;4.30;;;;;;;;;;5094833;28;20473;-71
2022/06/06 02:04:50;;;;;;;60.67;4.73;;;;;;;;;;5094865;28;20534;-71
2022/06/06 02:07:17;;;;;;;60.30;3.90;;;;;;;;;;5093982;28;20480;-72
2022/06/06 02:09:44;;;;;;;60.43;4.17;;;;;;;;;;5094756;28;20439;-72
2022/06/06 02:12:11;;;;;;;59.40;3.80;;;;;;;;;;5094465;28;20475;-72
2022/06/06 02:14:39;;;;;;;61.27;4.20;;;;;;;;;;5094721;28;20457;-72
2022/06/06 02:17:07;;;;;;;60.37;3.87;;;;;;;;;;5094764;28;20446;-71
2022/06/06 02:19:34;;;;;;;59.60;3.97;;;;;;;;;;5094403;28;20835;-72
2022/06/06 02:22:03;;;;;;;60.10;3.63;;;;;;;;;;5094427;28;20459;-74
2022/06/06 02:24:30;;;;;;;60.40;3.80;;;;;;;;;;5094257;28;20452;-72
2022/06/06 02:26:57;;;;;;;60.77;3.90;;;;;;;;;;5094178;28;21080;-71
2022/06/06 02:29:24;;;;;;;60.07;4.67;;;;;;;;;;5093327;28;20442;-72
2022/06/06 02:31:51;;;;;;;60.90;4.40;;;;;;;;;;5094371;28;20485;-72
2022/06/06 02:34:18;;;;;;;59.47;3.90;;;;;;;;;;5094479;28;20444;-72
2022/06/06 02:36:45;;;;;;;59.60;3.70;;;;;;;;;;5094257;28;20454;-72
2022/06/06 02:39:14;;;;;;;60.77;4.60;;;;;;;;;;5093288;28;20889;-70
2022/06/06 02:41:41;;;;;;;60.40;4.33;;;;;;;;;;5094213;28;20550;-72
2022/06/06 02:44:09;;;;;;;60.20;4.20;;;;;;;;;;5093918;28;20448;-72
2022/06/06 02:46:36;;;;;;;60.03;4.37;;;;;;;;;;5094096;28;20452;-73
2022/06/06 02:49:03;;;;;;;61.87;4.03;;;;;;;;;;5093233;28;20511;-72
2022/06/06 02:51:31;;;;;;;60.73;4.10;;;;;;;;;;5093873;28;20549;-69
2022/06/06 02:53:58;;;;;;;61.40;4.13;;;;;;;;;;5093733;28;20450;-71
2022/06/06 02:56:27;;;;;;;64.00;5.20;;;;;;;;;;5094001;28;20443;-72
2022/06/06 02:58:55;;;;;;;62.60;4.80;;;;;;;;;;5093015;28;20452;-73
2022/06/06 03:01:23;;;;;;;60.37;4.47;;;;;;;;;;5093574;28;20470;-71
2022/06/06 03:03:51;;;;;;;60.17;4.40;;;;;;;;;;5093639;28;20454;-71
2022/06/06 03:06:27;;;;;;;60.07;4.13;;;;;;;;;;5093559;28;20947;-71
2022/06/06 03:09:00;;;;;;;60.07;4.20;;;;;;;;;;5093040;28;20478;-70
2022/06/06 03:11:36;;;;;;;60.10;4.00;;;;;;;;;;5093653;28;20510;-72
2022/06/06 03:14:11;;;;;;;60.57;4.17;;;;;;;;;;5093467;28;20801;-71
2022/06/06 03:22:31;;;;;;;62.03;4.47;;;;;;;;;;5093215;28;20462;-72
2022/06/06 03:25:02;;;;;;;60.80;4.67;;;;;;;;;;5093302;28;20538;-72
2022/06/06 03:27:36;;;;;;;60.70;4.40;;;;;;;;;;5092661;28;20493;-72
2022/06/06 03:30:05;;;;;;;62.20;4.20;;;;;;;;;;5093430;28;20454;-71
2022/06/06 03:32:44;;;;;;;59.20;3.20;;;;;;;;;;5093080;28;20468;-71
2022/06/06 03:35:15;;;;;;;60.37;4.40;;;;;;;;;;5093094;28;20442;-72
2022/06/06 03:37:45;;;;;;;60.57;3.30;;;;;;;;;;5092101;28;20444;-72
2022/06/06 03:40:16;;;;;;;60.27;3.70;;;;;;;;;;5092173;28;20990;-72
2022/06/06 03:42:48;;;;;;;60.33;4.10;;;;;;;;;;5092741;28;20560;-72
2022/06/06 03:45:20;;;;;;;60.43;4.20;;;;;;;;;;5092816;28;20450;-73
2022/06/06 03:47:53;;;;;;;59.37;3.47;;;;;;;;;;5092108;28;20479;-74
2022/06/06 03:50:23;;;;;;;59.37;3.50;;;;;;;;;;5093082;28;20840;-72
2022/06/06 03:52:54;;;;;;;60.57;3.40;;;;;;;;;;5092797;28;20552;-73
2022/06/06 03:55:27;;;;;;;61.50;3.83;;;;;;;;;;5092915;28;20854;-72
2022/06/06 03:57:57;;;;;;;61.60;3.80;;;;;;;;;;5092010;28;20450;-70
2022/06/06 04:00:24;;;;;;;59.50;3.67;;;;;;;;;;5092619;28;20438;-70
2022/06/06 04:02:52;;;;;;;59.83;3.93;;;;;;;;;;5092470;28;20770;-72
2022/06/06 04:05:22;;;;;;;60.20;3.93;;;;;;;;;;5092775;28;20501;-72
2022/06/06 04:07:49;;;;;;;59.97;4.23;;;;;;;;;;5092119;28;20493;-72
2022/06/06 04:10:17;;;;;;;59.10;3.30;;;;;;;;;;5092534;28;20887;-72
2022/06/06 04:12:54;;;;;;;61.20;3.60;;;;;;;;;;5092163;28;20473;-73
2022/06/06 04:15:27;;;;;;;59.27;3.30;;;;;;;;;;5092591;28;20596;-72
2022/06/06 04:17:58;;;;;;;60.40;3.93;;;;;;;;;;5092004;28;20439;-70
2022/06/06 04:20:30;;;;;;;59.50;3.70;;;;;;;;;;5092402;28;20450;-71
2022/06/06 04:23:18;;;;;;;60.10;4.07;;;;;;;;;;5092084;28;20566;-72
2022/06/06 04:25:48;;;;;;;60.37;3.90;;;;;;;;;;5087186;28;20451;-72
2022/06/06 04:28:19;;;;;;;60.07;4.13;;;;;;;;;;5091735;28;20518;-73
2022/06/06 04:30:52;;;;;;;59.67;3.57;;;;;;;;;;5092219;28;20472;-73
2022/06/06 04:33:20;;;;;;;59.70;4.23;;;;;;;;;;5092122;28;20538;-73
2022/06/06 04:35:54;;;;;;;69.23;5.27;;;;;;;;;;5092030;28;20455;-72
2022/06/06 04:38:25;;;;;;;60.30;4.50;;;;;;;;;;5091472;28;20457;-73
2022/06/06 04:40:55;;;;;;;60.33;4.50;;;;;;;;;;5092091;28;20796;-73
2022/06/06 04:43:28;;;;;;;60.37;4.10;;;;;;;;;;5092065;28;20440;-72
2022/06/06 04:46:01;;;;;;;60.23;4.70;;;;;;;;;;5092062;28;20453;-72
2022/06/06 04:48:29;;;;;;;61.33;5.20;;;;;;;;;;5091061;28;20478;-73
2022/06/06 04:50:56;;;;;;;64.80;4.93;;;;;;;;;;5091781;28;20469;-72
2022/06/06 04:53:25;;;;;;;60.17;4.00;;;;;;;;;;5091965;28;20446;-73
2022/06/06 04:55:55;;;;;;;60.30;4.57;;;;;;;;;;5091979;28;20484;-73
2022/06/06 04:58:22;;;;;;;60.53;4.83;;;;;;;;;;5091250;28;20452;-71
2022/06/06 05:00:50;;;;;;;62.23;4.20;;;;;;;;;;5091648;28;20962;-72
2022/06/06 05:03:18;;;;;;;59.50;4.20;;;;;;;;;;5091736;28;20540;-70
2022/06/06 05:05:51;;;;;;;61.33;4.60;;;;;;;;;;5091736;28;20457;-72
2022/06/06 05:08:26;;;;;;;64.97;5.20;;;;;;;;;;5091128;28;20482;-73
2022/06/06 05:11:00;;;;;;;61.40;4.53;;;;;;;;;;5091291;28;20449;-72
2022/06/06 05:13:33;;;;;;;60.60;4.07;;;;;;;;;;5091579;28;20454;-74
2022/06/06 05:16:11;;;;;;;59.67;4.13;;;;;;;;;;5091848;28;20452;-72
2022/06/06 05:18:55;;;;;;;60.10;4.00;;;;;;;;;;5091236;28;20448;-70
2022/06/06 05:21:27;;;;;;;61.00;4.63;;;;;;;;;;5091559;28;21034;-72
2022/06/06 05:24:07;;;;;;;59.77;3.63;;;;;;;;;;5091396;28;20453;-72
2022/06/06 05:26:44;;;;;;;61.90;4.60;;;;;;;;;;5091497;28;20462;-73
2022/06/06 05:29:20;;;;;;;60.93;4.90;;;;;;;;;;5091021;28;20863;-72
2022/06/06 05:31:56;;;;;;;59.47;4.00;;;;;;;;;;5091529;28;20544;-73
2022/06/06 05:34:26;;;;;;;60.97;4.93;;;;;;;;;;5091428;28;20483;-73
2022/06/06 05:36:58;;;;;;;60.60;4.30;;;;;;;;;;5091485;28;20453;-72
2022/06/06 05:39:45;;;;;;;60.27;4.70;;;;;;;;;;5090771;28;20473;-72
2022/06/06 05:42:19;;;;;;;59.50;3.97;;;;;;;;;;5091413;28;20472;-72
2022/06/06 05:44:57;;;;;;;60.37;4.40;;;;;;;;;;5091455;28;20985;-72
2022/06/06 05:47:29;;;;;;;60.80;4.40;;;;;;;;;;5090706;28;21029;-73
2022/06/06 05:50:04;;;;;;;60.30;4.53;;;;;;;;;;5091431;28;20489;-74
2022/06/06 05:52:47;;;;;;;63.80;4.70;;;;;;;;;;5091309;28;20545;-72
2022/06/06 05:55:22;;;;;;;60.10;3.50;;;;;;;;;;5091196;28;20454;-72
2022/06/06 05:57:59;;;;;;;59.90;4.00;;;;;;;;;;5090887;28;20448;-71
2022/06/06 06:00:32;;;;;;;60.10;4.07;;;;;;;;;;5091370;28;20540;-71
2022/06/06 06:03:08;;;;;;;59.23;4.13;;;;;;;;;;5091987;28;20487;-72
2022/06/06 06:05:42;;;;;;;59.10;3.73;;;;;;;;;;5094761;28;20438;-71
2022/06/06 06:08:16;;;;;;;59.70;4.00;;;;;;;;;;5094480;28;20873;-72
2022/06/06 06:10:47;;;;;;;61.57;4.17;;;;;;;;;;5094890;28;20886;-71
2022/06/06 06:13:32;;;;;;;59.10;3.60;;;;;;;;;;5094763;28;20453;-71
2022/06/06 06:16:01;;;;;;;59.80;4.23;;;;;;;;;;5094564;28;20449;-71
2022/06/06 06:18:32;;;;;;;59.43;4.10;;;;;;;;;;5094132;28;20825;-71
2022/06/06 06:21:03;;;;;;;59.80;3.80;;;;;;;;;;5094347;28;20974;-73
2022/06/06 06:23:32;;;;;;;59.40;3.50;;;;;;;;;;5094518;28;20460;-71
2022/06/06 06:26:01;;;;;;;59.87;3.80;;;;;;;;;;5094431;28;20472;-72
2022/06/06 06:28:29;;;;;;;59.30;3.53;;;;;;;;;;5093549;28;20482;-71
2022/06/06 06:31:02;;;;;;;59.57;4.00;;;;;;;;;;5094580;28;20885;-72
2022/06/06 06:33:39;;;;;;;60.57;4.00;;;;;;;;;;5094457;28;20447;-73
2022/06/06 06:36:13;;;;;;;59.87;3.73;;;;;;;;;;5094272;28;20484;-71
2022/06/06 06:38:55;;;;;;;61.70;3.60;;;;;;;;;;5093342;28;20454;-70
2022/06/06 06:41:26;;;;;;;59.20;3.53;;;;;;;;;;5094335;28;20471;-71
2022/06/06 06:44:00;;;;;;;60.57;4.30;;;;;;;;;;5094285;28;20481;-71
2022/06/06 06:46:28;;;;;;;59.43;3.80;;;;;;;;;;5094452;28;20521;-71
2022/06/06 06:49:02;;;;;;;60.43;3.90;;;;;;;;;;5093552;28;20522;-71
2022/06/06 06:51:38;;;;;;;60.17;4.30;;;;;;;;;;5093907;28;20470;-72
2022/06/06 06:54:13;;;;;;;59.47;3.57;;;;;;;;;;5093795;28;20446;-71
2022/06/06 06:56:48;;;;;;;61.13;4.13;;;;;;;;;;5093998;28;20449;-71
2022/06/06 06:59:19;;;;;;;62.27;3.80;;;;;;;;;;5093220;28;20452;-71
2022/06/06 07:10:20;;;;;;;60.27;4.13;;;;;;;;;;5093558;28;20527;-71
2022/06/06 07:12:57;;;;;;;60.87;4.10;;;;;;;;;;5093598;28;20474;-72
2022/06/06 07:15:30;;;;;;;59.90;3.57;;;;;;;;;;5093459;28;20883;-71
2022/06/06 07:18:00;;;;;;;59.67;3.70;;;;;;;;;;5092890;28;20902;-72
2022/06/06 07:20:27;;;;;;;60.43;3.90;;;;;;;;;;5093234;28;20535;-74
2022/06/06 07:23:00;;;;;;;60.97;3.57;;;;;;;;;;5093369;28;20476;-71
2022/06/06 07:25:28;;;;;;;59.77;3.43;;;;;;;;;;5093297;28;20555;-72
2022/06/06 07:27:55;;;;;;;59.30;3.60;;;;;;;;;;5092923;28;20541;-72
2022/06/06 07:30:23;;;;;;;61.40;3.80;;;;;;;;;;5093148;28;20585;-72
2022/06/06 07:32:53;;;;;;;59.13;3.70;;;;;;;;;;5092824;28;20471;-72
2022/06/06 07:35:26;;;;;;;59.93;3.50;;;;;;;;;;5093387;28;20453;-72
2022/06/06 07:38:01;;;;;;;59.00;3.37;;;;;;;;;;5092448;28;20812;-73
2022/06/06 07:40:48;;;;;;;60.10;3.40;;;;;;;;;;5093172;28;20817;-72
2022/06/06 07:43:22;;;;;;;67.27;3.20;;;;;;;;;;5092922;28;20468;-74
2022/06/06 07:45:49;;;;;;;59.37;3.40;;;;;;;;;;5093242;28;20453;-73
2022/06/06 07:48:23;;;;;;;59.87;4.30;;;;;;;;;;5092135;28;20446;-73
2022/06/06 07:50:53;;;;;;;59.50;3.70;;;;;;;;;;5092713;28;20546;-72
2022/06/06 07:53:26;;;;;;;62.27;3.60;;;;;;;;;;5092676;28;20457;-72
2022/06/06 07:55:56;;;;;;;59.40;3.83;;;;;;;;;;5092740;28;20825;-69
2022/06/06 07:58:27;;;;;;;59.87;3.70;;;;;;;;;;5092304;28;20457;-72
2022/06/06 08:00:56;;;;;;;59.97;3.80;;;;;;;;;;5092749;28;20453;-73
2022/06/06 08:03:29;;;;;;;58.80;3.10;;;;;;;;;;5092493;28;20464;-73
2022/06/06 08:06:14;;;;;;;61.27;3.47;;;;;;;;;;5092518;28;20454;-73
2022/06/06 08:08:51;;;;;;;59.50;3.90;;;;;;;;;;5092055;28;20494;-72
2022/06/06 08:11:21;;;;;;;59.13;3.33;;;;;;;;;;5092430;28;20470;-72
2022/06/06 08:13:55;;;;;;;59.10;3.67;;;;;;;;;;5092296;28;20448;-72
2022/06/06 08:16:23;;;;;;;58.90;3.20;;;;;;;;;;5092376;28;20947;-72
2022/06/06 08:19:00;;;;;;;60.67;3.80;;;;;;;;;;5091510;28;20460;-73
2022/06/06 08:21:31;;;;;;;59.67;3.50;;;;;;;;;;5092408;28;20466;-72
2022/06/06 08:24:01;;;;;;;59.50;3.70;;;;;;;;;;5092337;28;20446;-72
2022/06/06 08:26:29;;;;;;;61.33;4.30;;;;;;;;;;5091727;28;20446;-72
2022/06/06 08:28:56;;;;;;;59.60;3.63;;;;;;;;;;5091507;28;20504;-73
2022/06/06 08:31:23;;;;;;;59.10;3.30;;;;;;;;;;5092103;28;20466;-72
2022/06/06 08:33:50;;;;;;;59.23;3.53;;;;;;;;;;5092246;28;20541;-72
2022/06/06 08:36:26;;;;;;;59.50;3.60;;;;;;;;;;5092217;28;20452;-72
2022/06/06 08:38:58;;;;;;;59.80;4.07;;;;;;;;;;5091390;28;20480;-72
2022/06/06 08:41:53;;;;;;;63.90;3.77;;;;;;;;;;5092035;28;20473;-73
2022/06/06 08:44:27;;;;;;;69.00;3.83;;;;;;;;;;5092160;28;20864;-69
2022/06/06 08:47:07;;;;;;;59.47;3.47;;;;;;;;;;5092441;28;20450;-72
2022/06/06 08:52:40;;;;;;;58.87;3.33;;;;;;;;;;5091831;28;20545;-72
2022/06/06 08:55:28;;;;;;;59.17;3.60;;;;;;;;;;5092178;28;20454;-71
2022/06/06 08:58:07;;;;;;;59.10;3.40;;;;;;;;;;5086469;28;20450;-72
2022/06/06 09:00:43;;;;;;;59.80;4.20;;;;;;;;;;5091753;28;20429;-72
2022/06/06 09:03:35;;;;;;;59.20;2.87;;;;;;;;;;5091832;28;20473;-72
2022/06/06 09:06:20;;;;;;;58.30;3.00;;;;;;;;;;5091863;28;20454;-72
2022/06/06 09:09:05;;;;;;;58.80;3.10;;;;;;;;;;5091253;28;20557;-71
2022/06/06 09:11:47;;;;;;;59.30;3.40;;;;;;;;;;5093503;28;20561;-71
2022/06/06 09:14:44;;;;;;;58.90;3.57;;;;;;;;;;5090612;28;20606;-72
2022/06/06 09:17:28;;;;;;;58.63;3.00;;;;;;;;;;5030623;28;20938;-72
2022/06/06 09:20:15;;;;;;;58.50;3.07;;;;;;;;;;5084706;28;20534;-73
2022/06/06 09:22:57;;;;;;;59.10;3.03;;;;;;;;;;5091660;28;20477;-72
2022/06/06 09:25:35;;;;;;;60.40;3.13;;;;;;;;;;5091816;28;21124;-73
2022/06/06 09:28:26;;;;;;;59.00;3.50;;;;;;;;;;5091009;28;20826;-73
2022/06/06 09:31:10;;;;;;;60.37;3.80;;;;;;;;;;5091693;28;20925;-72
2022/06/06 09:33:46;;;;;;;58.37;2.70;;;;;;;;;;5091492;28;20527;-73
2022/06/06 09:36:24;;;;;;;59.07;4.10;;;;;;;;;;5091773;28;20446;-73
2022/06/06 09:39:01;;;;;;;58.80;2.90;;;;;;;;;;5093402;28;20818;-73
2022/06/06 09:41:37;;;;;;;58.60;3.23;;;;;;;;;;5095274;28;20470;-72
2022/06/06 09:44:10;;;;;;;59.90;3.50;;;;;;;;;;5095242;28;20444;-72
2022/06/06 09:46:56;;;;;;;59.27;2.83;;;;;;;;;;5095517;28;20485;-72
2022/06/06 09:49:49;;;;;;;58.53;2.63;;;;;;;;;;5094474;28;20474;-73
2022/06/06 09:52:35;;;;;;;58.90;3.00;;;;;;;;;;5098337;28;20696;-72
2022/06/06 10:01:57;;;;;;;58.77;2.50;;;;;;;;;;5054496;28;20438;-72
2022/06/06 10:04:43;;;;;;;58.37;2.70;;;;;;;;;;5097148;28;20450;-71
2022/06/06 10:07:32;;;;;;;58.20;3.00;;;;;;;;;;5100152;28;20449;-74
2022/06/06 10:10:21;;;;;;;58.60;2.50;;;;;;;;;;5102452;28;20535;-73
2022/06/06 10:12:57;;;;;;;58.70;2.80;;;;;;;;;;5103785;28;20598;-72
2022/06/06 10:15:46;;;;;;;58.60;2.40;;;;;;;;;;5100708;28;20532;-71
2022/06/06 10:18:31;;;;;;;58.60;2.80;;;;;;;;;;5093618;28;20493;-71
2022/06/06 10:21:06;;;;;;;58.77;2.70;;;;;;;;;;5097284;28;20436;-72
2022/06/06 10:23:39;;;;;;;57.67;2.30;;;;;;;;;;5095858;28;20457;-72
2022/06/06 10:26:25;;;;;;;58.00;2.30;;;;;;;;;;5098317;28;20457;-72
2022/06/06 10:29:12;;;;;;;59.37;2.33;;;;;;;;;;5099091;28;20450;-73
2022/06/06 10:31:49;;;;;;;59.93;2.70;;;;;;;;;;5101340;28;20538;-72
2022/06/06 10:34:23;;;;;;;57.87;2.40;;;;;;;;;;5096101;28;20477;-73
2022/06/06 10:37:01;;;;;;;57.93;2.20;;;;;;;;;;5098148;28;20971;-72
2022/06/06 10:39:41;;;;;;;58.30;2.50;;;;;;;;;;5095007;28;20486;-72
2022/06/06 10:42:16;;;;;;;58.10;2.20;;;;;;;;;;5096494;28;20466;-73
2022/06/06 10:44:53;;;;;;;57.67;2.00;;;;;;;;;;5096206;28;20496;-72
2022/06/06 10:47:26;;;;;;;57.80;2.13;;;;;;;;;;5098278;28;20442;-70
2022/06/06 10:49:57;;;;;;;57.80;2.20;;;;;;;;;;5097457;28;20919;-73
2022/06/06 10:52:40;;;;;;;57.90;2.00;;;;;;;;;;5094402;28;20474;-73
2022/06/06 10:55:22;;;;;;;58.10;2.60;;;;;;;;;;5095358;28;20447;-73
2022/06/06 10:58:13;;;;;;;57.77;2.43;;;;;;;;;;5095699;28;20446;-72
2022/06/06 11:00:49;;;;;;;57.77;2.30;;;;;;;;;;5099131;28;20720;-70
2022/06/06 11:03:27;;;;;;;58.50;2.77;;;;;;;;;;5105568;28;20474;-70
2022/06/06 11:06:10;;;;;;;58.00;2.50;;;;;;;;;;5104728;28;20455;-70
2022/06/06 11:08:44;;;;;;;58.90;2.40;;;;;;;;;;5094731;28;20453;-72
2022/06/06 11:11:24;;;;;;;59.03;2.83;;;;;;;;;;5100940;28;20841;-72
2022/06/06 11:13:56;;;;;;;58.30;2.50;;;;;;;;;;5100976;28;20516;-72
2022/06/06 11:16:42;;;;;;;58.87;2.87;;;;;;;;;;5098984;28;20529;-72
2022/06/06 11:19:31;;;;;;;57.97;2.27;;;;;;;;;;5100640;28;20486;-73
2022/06/06 11:22:12;;;;;;;58.23;2.10;;;;;;;;;;5099452;28;20491;-72
2022/06/06 11:24:42;;;;;;;57.87;2.40;;;;;;;;;;5100397;28;20454;-73
2022/06/06 11:27:25;;;;;;;58.03;2.43;;;;;;;;;;5095665;28;20447;-72
2022/06/06 11:30:04;;;;;;;57.57;2.40;;;;;;;;;;5094548;28;20482;-72
2022/06/06 11:32:46;;;;;;;57.77;2.40;;;;;;;;;;5092979;28;20473;-72
2022/06/06 11:35:27;;;;;;;57.73;2.20;;;;;;;;;;5091218;28;20446;-71
2022/06/06 11:38:11;;;;;;;57.87;2.43;;;;;;;;;;5094905;28;20457;-72
2022/06/06 11:40:57;;;;;;;58.00;2.20;;;;;;;;;;5093148;28;20439;-72
2022/06/06 11:43:43;;;;;;;58.23;2.30;;;;;;;;;;5093270;28;20446;-71
2022/06/06 11:46:22;;;;;;;58.27;2.57;;;;;;;;;;5092855;28;20450;-71
2022/06/06 11:48:59;;;;;;;57.77;2.20;;;;;;;;;;5092307;28;20864;-71
2022/06/06 11:51:38;;;;;;;58.40;2.40;;;;;;;;;;5092733;28;20573;-74
2022/06/06 11:54:17;;;;;;;57.77;2.40;;;;;;;;;;5092965;28;20815;-73
2022/06/06 11:56:54;;;;;;;57.50;2.30;;;;;;;;;;5092979;28;20533;-72
2022/06/06 11:59:43;;;;;;;58.00;2.40;;;;;;;;;;5092171;28;20869;-72
2022/06/06 12:02:31;;;;;;;57.97;2.60;;;;;;;;;;5092217;28;20466;-72
2022/06/06 12:05:11;;;;;;;58.07;2.47;;;;;;;;;;5092609;28;20445;-73
2022/06/06 12:07:49;;;;;;;58.17;2.27;;;;;;;;;;5092072;28;20789;-71
2022/06/06 12:10:19;;;;;;;58.10;2.30;;;;;;;;;;5092737;28;20474;-72
2022/06/06 12:13:04;;;;;;;58.10;2.40;;;;;;;;;;5092796;28;20501;-71
2022/06/06 12:15:47;;;;;;;58.37;2.50;;;;;;;;;;5092865;28;20443;-72
2022/06/06 12:18:25;;;;;;;58.87;2.70;;;;;;;;;;5091802;28;20457;-73
2022/06/06 12:21:02;;;;;;;58.07;2.70;;;;;;;;;;5092464;28;20471;-73
2022/06/06 12:23:37;;;;;;;59.30;2.90;;;;;;;;;;5092401;28;20979;-73
2022/06/06 12:26:20;;;;;;;58.50;2.70;;;;;;;;;;5092521;28;20488;-73
2022/06/06 12:29:04;;;;;;;58.63;2.97;;;;;;;;;;5091572;28;20451;-73
2022/06/06 12:31:41;;;;;;;58.13;2.40;;;;;;;;;;5092225;28;20507;-70
2022/06/06 12:34:13;;;;;;;58.60;2.90;;;;;;;;;;5092184;28;20479;-70
2022/06/06 12:36:45;;;;;;;62.93;2.80;;;;;;;;;;5092185;28;20457;-72
2022/06/06 12:39:15;;;;;;;62.17;2.50;;;;;;;;;;5091319;28;20454;-71
2022/06/06 12:41:50;;;;;;;58.33;2.50;;;;;;;;;;5092517;28;20459;-72
2022/06/06 12:44:28;;;;;;;58.60;2.73;;;;;;;;;;5092409;28;20452;-71
2022/06/06 12:47:13;;;;;;;58.67;2.80;;;;;;;;;;5092100;28;20446;-71
2022/06/06 12:49:53;;;;;;;57.93;2.60;;;;;;;;;;5061041;28;20968;-72
2022/06/06 12:52:40;;;;;;;58.50;2.70;;;;;;;;;;5092014;28;20558;-72
2022/06/06 12:55:30;;;;;;;58.60;2.67;;;;;;;;;;5091986;28;20451;-70
2022/06/06 12:58:00;;;;;;;57.83;2.20;;;;;;;;;;5091216;28;20448;-72
2022/06/06 13:03:16;;;;;;;58.10;2.40;;;;;;;;;;5091390;28;20450;-72
2022/06/06 13:05:50;;;;;;;57.63;1.87;;;;;;;;;;5091931;28;20450;-71
2022/06/06 13:08:34;;;;;;;58.00;2.23;;;;;;;;;;5091304;28;20455;-71
2022/06/06 13:11:13;;;;;;;57.57;2.13;;;;;;;;;;5091919;28;20486;-71
2022/06/06 13:13:49;;;;;;;57.77;2.47;;;;;;;;;;5095808;28;20488;-71
2022/06/06 13:16:26;;;;;;;58.13;2.47;;;;;;;;;;5096000;28;20446;-71
2022/06/06 13:19:01;;;;;;;58.20;2.30;;;;;;;;;;5095274;28;20446;-71
2022/06/06 13:21:46;;;;;;;57.97;2.10;;;;;;;;;;5095733;28;20473;-71
2022/06/06 13:24:28;;;;;;;57.87;2.40;;;;;;;;;;5095755;28;20966;-71
2022/06/06 13:26:55;;;;;;;58.77;2.60;;;;;;;;;;5095679;28;21027;-71
2022/06/06 13:29:28;;;;;;;58.13;2.60;;;;;;;;;;5094898;28;20572;-71
2022/06/06 13:32:01;;;;;;;58.07;2.40;;;;;;;;;;5095548;28;20496;-71
2022/06/06 13:34:32;;;;;;;58.00;2.30;;;;;;;;;;5095626;28;20536;-72
2022/06/06 13:37:06;;;;;;;58.43;2.73;;;;;;;;;;5095622;28;20452;-71
2022/06/06 13:39:42;;;;;;;58.27;2.60;;;;;;;;;;5095211;28;20967;-72
2022/06/06 13:42:13;;;;;;;59.73;3.07;;;;;;;;;;5095560;28;20494;-73
2022/06/06 13:44:55;;;;;;;58.93;2.60;;;;;;;;;;5095517;28;20834;-71
2022/06/06 13:47:28;;;;;;;58.47;2.77;;;;;;;;;;5081986;28;20456;-72
2022/06/06 13:50:04;;;;;;;59.73;3.30;;;;;;;;;;5095179;28;20942;-71
2022/06/06 13:52:41;;;;;;;59.10;2.90;;;;;;;;;;5095189;28;20484;-72
2022/06/06 13:55:26;;;;;;;58.37;2.80;;;;;;;;;;5095471;28;20474;-72
2022/06/06 13:57:58;;;;;;;58.17;2.50;;;;;;;;;;5094308;28;20442;-72
2022/06/06 14:00:29;;;;;;;58.60;2.63;;;;;;;;;;5094943;28;20430;-71
2022/06/06 14:03:11;;;;;;;59.40;2.93;;;;;;;;;;5095109;28;20822;-71
2022/06/06 14:05:53;;;;;;;59.93;2.90;;;;;;;;;;5095020;28;20549;-71
2022/06/06 14:08:21;;;;;;;58.53;2.90;;;;;;;;;;5094172;28;20452;-71
2022/06/06 14:11:05;;;;;;;59.63;3.13;;;;;;;;;;5094582;28;20478;-72
2022/06/06 14:13:46;;;;;;;58.90;3.17;;;;;;;;;;5094816;28;20473;-71
2022/06/06 14:16:25;;;;;;;60.80;3.57;;;;;;;;;;5094783;28;20452;-72
2022/06/06 14:18:54;;;;;;;58.67;3.03;;;;;;;;;;5093981;28;20450;-71
2022/06/06 14:21:26;;;;;;;58.27;2.70;;;;;;;;;;5094426;28;20466;-72
2022/06/06 14:24:06;;;;;;;58.57;2.90;;;;;;;;;;5093947;28;20453;-71
2022/06/06 14:26:35;;;;;;;58.90;2.63;;;;;;;;;;5094695;28;20832;-71
2022/06/06 14:29:08;;;;;;;58.80;3.30;;;;;;;;;;5093845;28;20457;-70
2022/06/06 14:31:36;;;;;;;60.57;3.97;;;;;;;;;;5094122;28;20483;-71
2022/06/06 14:34:17;;;;;;;62.60;5.83;;;;;;;;;;5094440;28;20450;-71
2022/06/06 14:36:46;;;;;;;67.70;7.43;;;;;;;;;;5094574;28;20898;-73
2022/06/06 14:39:21;;;;;;;60.80;5.00;;;;;;;;;;5093561;28;20455;-71
2022/06/06 14:41:50;;;;;;;61.63;4.40;;;;;;;;;;5094139;28;20652;-71
2022/06/06 14:44:28;;;;;;;63.43;4.73;;;;;;;;;;5094483;28;20795;-72
2022/06/06 14:47:05;;;;;;;58.97;3.47;;;;;;;;;;5094339;28;20446;-71
2022/06/06 14:49:35;;;;;;;65.70;6.33;;;;;;;;;;5093798;28;20450;-72
2022/06/06 14:52:11;;;;;;;62.10;5.60;;;;;;;;;;5093812;28;20878;-71
2022/06/06 14:54:39;;;;;;;58.87;2.93;;;;;;;;;;5093841;28;20465;-71
2022/06/06 14:57:12;;;;;;;58.70;2.70;;;;;;;;;;5093760;28;20465;-71
2022/06/06 14:59:42;;;;;;;59.37;2.53;;;;;;;;;;5093902;28;20935;-71
2022/06/06 15:02:11;;;;;;;59.17;3.00;;;;;;;;;;5093841;28;20475;-71
2022/06/06 15:04:39;;;;;;;58.30;2.47;;;;;;;;;;5093675;28;20881;-71
2022/06/06 15:07:06;;;;;;;59.97;2.37;;;;;;;;;;5093540;28;20447;-72
2022/06/06 15:09:37;;;;;;;58.10;2.33;;;;;;;;;;5093371;28;20452;-72
2022/06/06 15:12:05;;;;;;;58.70;2.80;;;;;;;;;;5093401;28;20575;-72
2022/06/06 15:14:35;;;;;;;58.57;2.50;;;;;;;;;;5093826;28;20489;-72
2022/06/06 15:17:04;;;;;;;58.17;2.30;;;;;;;;;;5093758;28;20499;-72
2022/06/06 15:19:33;;;;;;;58.67;2.87;;;;;;;;;;5093448;28;20449;-71
2022/06/06 15:22:02;;;;;;;58.87;3.03;;;;;;;;;;5093431;28;21141;-72
2022/06/06 15:24:32;;;;;;;58.40;2.60;;;;;;;;;;5093482;28;20509;-73
2022/06/06 15:27:03;;;;;;;61.07;2.47;;;;;;;;;;5093779;28;20475;-72
2022/06/06 15:29:34;;;;;;;58.60;2.53;;;;;;;;;;5093289;28;20857;-72
2022/06/06 15:32:08;;;;;;;59.03;2.50;;;;;;;;;;5093067;28;20492;-71
2022/06/06 15:34:54;;;;;;;58.07;2.33;;;;;;;;;;5093377;28;20449;-73
2022/06/06 15:37:26;;;;;;;58.07;2.40;;;;;;;;;;5092697;28;20630;-72
2022/06/06 15:39:59;;;;;;;58.60;2.47;;;;;;;;;;5093181;28;20440;-73